This is the latest recevied weather packets stored in our database for station/object KE5VT. If no packets are shown the sender has not sent any weather packets the latest 10 day(s).
| Time | Temp. | Humidity | Pressure | Rain* | Wind** | Luminosity | Snow |
|---|---|---|---|---|---|---|---|
| 1777753989 | 14.44° C | 70% | 1007.7 hPa | 0 mm | - | 194 W/m² | - |
| 1777753689 | 15° C | 71% | 1007.8 hPa | 0 mm | - | 209 W/m² | - |
| 1777753387 | 14.44° C | 72% | 1008 hPa | 0 mm | - | 198 W/m² | - |
| 1777753085 | 14.44° C | 72% | 1008.1 hPa | 0 mm | - | 161 W/m² | - |
| 1777752780 | 14.44° C | 73% | 1008 hPa | 0 mm | - | 178 W/m² | - |
| 1777752477 | 14.44° C | 72% | 1008.1 hPa | 0 mm | - | 192 W/m² | - |
| 1777752172 | 15° C | 73% | 1008.2 hPa | 0 mm | - | 208 W/m² | - |
| 1777747281 | 13.89° C | 77% | 1008.8 hPa | 0 mm | - | 93 W/m² | - |
| 1777746978 | 13.89° C | 77% | 1008.8 hPa | 0 mm | - | 93 W/m² | - |
| 1777746674 | 13.89° C | 76% | 1008.7 hPa | 0 mm | - | 98 W/m² | - |
| 1777746369 | 13.89° C | 77% | 1008.6 hPa | 0 mm | - | 104 W/m² | - |
| 1777746065 | 13.89° C | 77% | 1008.7 hPa | 0 mm | - | 106 W/m² | - |
| 1777745763 | 13.89° C | 77% | 1008.7 hPa | 0 mm | - | 126 W/m² | - |
| 1777745462 | 13.89° C | 76% | 1008.8 hPa | 0 mm | - | 135 W/m² | - |
| 1777745158 | 13.89° C | 77% | 1008.8 hPa | 0 mm | - | 147 W/m² | - |
| 1777744850 | 13.33° C | 77% | 1009 hPa | 0 mm | - | 150 W/m² | - |
| 1777744549 | 13.89° C | 79% | 1008.8 hPa | 0 mm | - | 174 W/m² | - |
| 1777744245 | 13.89° C | 77% | 1008.9 hPa | 0 mm | - | 159 W/m² | - |
| 1777743943 | 13.89° C | 77% | 1009 hPa | 0 mm | - | 159 W/m² | - |
| 1777743639 | 13.89° C | 76% | 1008.8 hPa | 0 mm | - | 215 W/m² | - |
| 1777743337 | 13.33° C | 77% | 1008.9 hPa | 0 mm | - | 274 W/m² | - |
| 1777743035 | 13.33° C | 79% | 1009 hPa | 0 mm | - | 250 W/m² | - |
| 1777742732 | 13.89° C | 79% | 1008.9 hPa | 0 mm | - | 224 W/m² | - |
| 1777742428 | 13.33° C | 78% | 1009.1 hPa | 0 mm | - | 291 W/m² | - |
| 1777742123 | 12.78° C | 80% | 1009.1 hPa | 0 mm | - | 266 W/m² | - |
* Rain latest hour (hover to see other rain measurements)
** Current wind speed in m/s (hover to see current wind gust speed)